Time;durP1;ratioP1;P1;durP2;ratioP2;P2;SDS_P1;SDS_P2;PMS_P1;PMS_P2;Temp;Humidity;BMP_temperature;BMP_pressure;BME280_temperature;BME280_humidity;BME280_pressure;Samples;Min_cycle;Max_cycle;Signal;HPM_P1;HPM_P2
2023/10/31 00:01:58;;;;;;;8.13;5.47;;;;;;;;;;5044154;28;20020;-66
2023/10/31 00:04:23;;;;;;;8.85;6.20;;;;;;;;;;5047652;28;20361;-66
2023/10/31 00:06:49;;;;;;;11.63;8.63;;;;;;;;;;5045375;28;20033;-66
2023/10/31 00:09:14;;;;;;;13.25;10.43;;;;;;;;;;5043922;28;20099;-67
2023/10/31 00:11:44;;;;;;;19.80;13.63;;;;;;;;;;5042887;28;20043;-68
2023/10/31 00:14:09;;;;;;;15.68;11.55;;;;;;;;;;5045018;28;20365;-67
2023/10/31 00:16:34;;;;;;;16.30;11.70;;;;;;;;;;5043894;28;20029;-69
2023/10/31 00:19:00;;;;;;;19.02;13.98;;;;;;;;;;5033053;28;20033;-68
2023/10/31 00:21:25;;;;;;;13.52;9.90;;;;;;;;;;5043136;28;20037;-72
2023/10/31 00:23:50;;;;;;;16.23;12.80;;;;;;;;;;5043845;28;20130;-69
2023/10/31 00:26:16;;;;;;;21.85;15.93;;;;;;;;;;5044700;28;20090;-68
2023/10/31 00:28:41;;;;;;;12.65;7.63;;;;;;;;;;5042785;28;20430;-72
2023/10/31 00:31:07;;;;;;;9.13;6.10;;;;;;;;;;5033946;28;20104;-68
2023/10/31 00:33:34;;;;;;;10.90;6.90;;;;;;;;;;5048103;28;20134;-69
2023/10/31 00:35:59;;;;;;;13.90;9.52;;;;;;;;;;5043947;28;20025;-67
2023/10/31 00:38:24;;;;;;;12.63;9.43;;;;;;;;;;5038791;28;20052;-71
2023/10/31 00:40:50;;;;;;;11.95;9.80;;;;;;;;;;5040961;28;20036;-67
2023/10/31 00:43:15;;;;;;;17.63;8.82;;;;;;;;;;5046474;28;20423;-70
2023/10/31 00:45:40;;;;;;;10.50;8.25;;;;;;;;;;5043478;28;20430;-69
2023/10/31 00:48:06;;;;;;;14.02;9.48;;;;;;;;;;5035719;28;20029;-68
2023/10/31 00:50:31;;;;;;;13.65;9.73;;;;;;;;;;5042114;28;20127;-73
2023/10/31 00:52:56;;;;;;;17.85;13.00;;;;;;;;;;5042560;28;20079;-70
2023/10/31 00:55:22;;;;;;;21.25;16.92;;;;;;;;;;5033496;28;20036;-69
2023/10/31 00:57:47;;;;;;;25.35;17.35;;;;;;;;;;5043106;28;20470;-66
2023/10/31 01:00:13;;;;;;;31.55;23.13;;;;;;;;;;5046968;28;20415;-71
2023/10/31 01:02:38;;;;;;;28.00;22.15;;;;;;;;;;5043532;28;20106;-67
2023/10/31 01:05:04;;;;;;;27.35;19.42;;;;;;;;;;5035028;28;20038;-68
2023/10/31 01:07:29;;;;;;;23.85;18.63;;;;;;;;;;5039336;28;20502;-70
2023/10/31 01:09:55;;;;;;;23.50;17.65;;;;;;;;;;5042402;28;20436;-67
2023/10/31 01:12:20;;;;;;;22.08;17.23;;;;;;;;;;5043783;28;20021;-70
2023/10/31 01:14:45;;;;;;;21.63;18.35;;;;;;;;;;5038264;28;20096;-69
2023/10/31 01:17:11;;;;;;;17.33;14.10;;;;;;;;;;5035343;28;20033;-69
2023/10/31 01:19:36;;;;;;;20.20;12.88;;;;;;;;;;5030870;28;20017;-68
2023/10/31 01:22:01;;;;;;;21.10;16.70;;;;;;;;;;5032842;28;20033;-67
2023/10/31 01:24:27;;;;;;;15.18;11.75;;;;;;;;;;5043415;28;20086;-70
2023/10/31 01:26:52;;;;;;;16.95;11.10;;;;;;;;;;5032909;28;20029;-67
2023/10/31 01:29:18;;;;;;;26.48;19.83;;;;;;;;;;5043714;28;20032;-66
2023/10/31 01:31:43;;;;;;;23.15;18.10;;;;;;;;;;5042525;28;20023;-71
2023/10/31 01:34:08;;;;;;;19.35;14.40;;;;;;;;;;5045064;28;20036;-67
2023/10/31 01:36:34;;;;;;;28.10;18.08;;;;;;;;;;5041733;28;20061;-67
2023/10/31 01:38:59;;;;;;;37.78;25.45;;;;;;;;;;5040904;28;20224;-70
2023/10/31 01:41:25;;;;;;;46.72;28.42;;;;;;;;;;5042383;28;20363;-68
2023/10/31 01:43:50;;;;;;;23.02;14.30;;;;;;;;;;5041302;28;20020;-66
2023/10/31 01:46:16;;;;;;;29.95;18.35;;;;;;;;;;5041791;28;20036;-68
2023/10/31 01:48:41;;;;;;;15.35;11.02;;;;;;;;;;5044017;28;20036;-71
2023/10/31 01:51:07;;;;;;;15.75;9.00;;;;;;;;;;5043268;28;20021;-69
2023/10/31 01:53:33;;;;;;;13.73;8.38;;;;;;;;;;5041568;28;20110;-69
2023/10/31 01:56:01;;;;;;;18.13;11.60;;;;;;;;;;5039883;28;20419;-70
2023/10/31 01:58:28;;;;;;;13.82;9.77;;;;;;;;;;5033111;28;20043;-67
2023/10/31 02:00:55;;;;;;;17.08;10.88;;;;;;;;;;5042932;28;20759;-68
2023/10/31 02:03:20;;;;;;;14.23;9.50;;;;;;;;;;5041883;28;20052;-68
2023/10/31 02:05:46;;;;;;;12.15;7.85;;;;;;;;;;5039524;28;20075;-68
2023/10/31 02:08:11;;;;;;;9.15;4.78;;;;;;;;;;5033842;28;20098;-67
2023/10/31 02:10:36;;;;;;;7.47;5.05;;;;;;;;;;5041737;28;20035;-67
2023/10/31 02:13:11;;;;;;;9.23;5.45;;;;;;;;;;5042969;28;20032;-67
2023/10/31 02:15:37;;;;;;;9.50;5.28;;;;;;;;;;5036559;28;20569;-67
2023/10/31 02:18:03;;;;;;;9.75;5.95;;;;;;;;;;5029721;28;20029;-68
2023/10/31 02:20:28;;;;;;;19.60;11.90;;;;;;;;;;5030885;28;20029;-67
2023/10/31 02:22:53;;;;;;;30.48;16.23;;;;;;;;;;5030684;28;20020;-68
2023/10/31 02:25:19;;;;;;;32.83;16.77;;;;;;;;;;5028559;28;20111;-67
2023/10/31 02:27:44;;;;;;;20.40;12.30;;;;;;;;;;5029284;28;20064;-73
2023/10/31 02:30:10;;;;;;;12.00;7.32;;;;;;;;;;5038498;28;20422;-67
2023/10/31 02:32:35;;;;;;;10.43;7.50;;;;;;;;;;5030301;28;20040;-70
2023/10/31 02:35:00;;;;;;;11.77;7.40;;;;;;;;;;5037292;28;20028;-69
2023/10/31 02:37:26;;;;;;;11.13;7.10;;;;;;;;;;5034364;28;20060;-69
2023/10/31 02:39:51;;;;;;;7.18;5.05;;;;;;;;;;5027735;28;20042;-67
2023/10/31 02:42:16;;;;;;;9.20;5.18;;;;;;;;;;5040811;28;20029;-66
2023/10/31 02:44:42;;;;;;;10.38;5.38;;;;;;;;;;5039870;28;20056;-69
2023/10/31 02:47:07;;;;;;;5.60;4.43;;;;;;;;;;5041955;28;20345;-67
2023/10/31 02:49:33;;;;;;;5.93;4.28;;;;;;;;;;5041693;28;20029;-67
2023/10/31 02:51:58;;;;;;;6.05;4.30;;;;;;;;;;5036715;28;20068;-72
2023/10/31 02:54:23;;;;;;;6.70;4.45;;;;;;;;;;5028569;28;20036;-70
2023/10/31 02:56:49;;;;;;;5.07;3.92;;;;;;;;;;5027883;28;20033;-67
2023/10/31 02:59:14;;;;;;;5.90;4.57;;;;;;;;;;5028737;28;20056;-71
2023/10/31 03:01:39;;;;;;;7.53;4.50;;;;;;;;;;5031015;28;20065;-66
2023/10/31 03:04:05;;;;;;;6.43;4.32;;;;;;;;;;5029134;28;20033;-68
2023/10/31 03:06:30;;;;;;;7.90;5.28;;;;;;;;;;5037029;28;20044;-66
2023/10/31 03:08:55;;;;;;;9.52;6.15;;;;;;;;;;5040738;28;20040;-67
2023/10/31 03:11:22;;;;;;;12.40;7.68;;;;;;;;;;5037102;28;20025;-65
2023/10/31 03:13:48;;;;;;;10.65;5.80;;;;;;;;;;5033655;28;21387;-70
2023/10/31 03:16:14;;;;;;;10.80;7.05;;;;;;;;;;5035016;28;20071;-67
2023/10/31 03:18:39;;;;;;;13.13;8.93;;;;;;;;;;5046001;28;20052;-65
2023/10/31 03:21:04;;;;;;;11.55;9.55;;;;;;;;;;5044122;28;20112;-69
2023/10/31 03:23:30;;;;;;;10.95;8.82;;;;;;;;;;5045370;28;20057;-70
2023/10/31 03:25:55;;;;;;;13.63;8.77;;;;;;;;;;5046667;28;20020;-66
2023/10/31 03:28:23;;;;;;;14.43;10.50;;;;;;;;;;5044998;28;20032;-66
2023/10/31 03:30:49;;;;;;;16.27;11.55;;;;;;;;;;5043526;28;20472;-67
2023/10/31 03:33:15;;;;;;;12.60;9.20;;;;;;;;;;5045670;28;20061;-67
2023/10/31 03:35:40;;;;;;;14.38;8.43;;;;;;;;;;5047041;28;20033;-66
2023/10/31 03:38:06;;;;;;;11.88;8.00;;;;;;;;;;5043826;28;20132;-66
2023/10/31 03:40:31;;;;;;;11.98;8.55;;;;;;;;;;5044220;28;20432;-71
2023/10/31 03:42:56;;;;;;;14.50;10.18;;;;;;;;;;5046709;28;20407;-69
2023/10/31 03:45:21;;;;;;;19.80;15.63;;;;;;;;;;5037080;28;20355;-66
2023/10/31 03:47:47;;;;;;;12.73;9.60;;;;;;;;;;5042205;28;20389;-72
2023/10/31 03:50:12;;;;;;;7.35;5.05;;;;;;;;;;5044000;28;20051;-68
2023/10/31 03:52:38;;;;;;;12.02;6.45;;;;;;;;;;5042626;28;20039;-68
2023/10/31 03:55:03;;;;;;;10.02;8.20;;;;;;;;;;5035138;28;20036;-67
2023/10/31 03:57:29;;;;;;;16.10;13.18;;;;;;;;;;5036786;28;20036;-68
2023/10/31 03:59:54;;;;;;;20.42;14.88;;;;;;;;;;5038993;28;20028;-70
2023/10/31 04:02:19;;;;;;;18.83;13.07;;;;;;;;;;5045092;28;20067;-68
2023/10/31 04:04:45;;;;;;;16.25;12.57;;;;;;;;;;5036200;28;20039;-68
2023/10/31 04:07:10;;;;;;;14.98;12.30;;;;;;;;;;5032229;28;20158;-72
2023/10/31 04:09:35;;;;;;;15.25;11.45;;;;;;;;;;5034091;28;20044;-69
2023/10/31 04:12:01;;;;;;;19.83;14.95;;;;;;;;;;5033969;28;20055;-69
2023/10/31 04:14:26;;;;;;;18.55;15.25;;;;;;;;;;5035322;28;20043;-71
2023/10/31 04:16:51;;;;;;;15.93;11.70;;;;;;;;;;5035946;28;20043;-70
2023/10/31 04:19:18;;;;;;;15.65;9.80;;;;;;;;;;5033405;28;20036;-68
2023/10/31 04:21:43;;;;;;;9.73;8.25;;;;;;;;;;5034240;28;20101;-68
2023/10/31 04:24:09;;;;;;;10.45;7.47;;;;;;;;;;5033676;28;20029;-66
2023/10/31 04:26:34;;;;;;;9.30;7.10;;;;;;;;;;5031876;28;20032;-71
2023/10/31 04:28:59;;;;;;;12.23;7.10;;;;;;;;;;5036972;28;20326;-70
2023/10/31 04:31:25;;;;;;;11.77;7.50;;;;;;;;;;5030875;28;20028;-68
2023/10/31 04:33:50;;;;;;;8.55;6.47;;;;;;;;;;5033531;28;20021;-70
2023/10/31 04:36:15;;;;;;;23.35;13.85;;;;;;;;;;5033277;28;20049;-68
2023/10/31 04:38:41;;;;;;;21.27;14.27;;;;;;;;;;5031392;28;20147;-68
2023/10/31 04:41:07;;;;;;;19.10;11.73;;;;;;;;;;5030428;28;20063;-67
2023/10/31 04:43:33;;;;;;;18.58;11.73;;;;;;;;;;5031402;28;20033;-67
2023/10/31 04:45:58;;;;;;;19.98;11.57;;;;;;;;;;5031546;28;20029;-68
2023/10/31 04:48:24;;;;;;;15.25;11.27;;;;;;;;;;5033747;28;20122;-67
2023/10/31 04:50:50;;;;;;;19.50;12.85;;;;;;;;;;5031393;28;20032;-72
2023/10/31 04:53:15;;;;;;;22.90;15.68;;;;;;;;;;5034301;28;20040;-70
2023/10/31 04:55:40;;;;;;;32.20;19.75;;;;;;;;;;5033678;28;20033;-71
2023/10/31 04:58:06;;;;;;;28.77;21.48;;;;;;;;;;5034237;28;20029;-71
2023/10/31 05:00:31;;;;;;;62.25;40.10;;;;;;;;;;5031700;28;20025;-69
2023/10/31 05:02:58;;;;;;;54.97;40.67;;;;;;;;;;5032151;28;20383;-68
2023/10/31 05:05:23;;;;;;;60.17;42.33;;;;;;;;;;5033180;28;20112;-70
2023/10/31 05:07:48;;;;;;;48.97;35.55;;;;;;;;;;5034189;28;20150;-67
2023/10/31 05:10:14;;;;;;;44.00;34.08;;;;;;;;;;5031684;28;20024;-69
2023/10/31 05:12:40;;;;;;;39.58;29.38;;;;;;;;;;5036650;28;20025;-70
2023/10/31 05:15:05;;;;;;;32.50;25.95;;;;;;;;;;5034533;28;20458;-70
2023/10/31 05:17:31;;;;;;;28.58;21.75;;;;;;;;;;5041830;28;20058;-66
2023/10/31 05:19:56;;;;;;;23.35;18.85;;;;;;;;;;5041556;28;20029;-67
2023/10/31 05:22:21;;;;;;;17.40;14.18;;;;;;;;;;5039291;28;20418;-65
2023/10/31 05:24:47;;;;;;;17.20;14.32;;;;;;;;;;5029914;28;20368;-67
2023/10/31 05:27:12;;;;;;;17.98;12.73;;;;;;;;;;5032408;28;20068;-67
2023/10/31 05:29:38;;;;;;;21.55;13.27;;;;;;;;;;5041187;28;20071;-68
2023/10/31 05:32:04;;;;;;;16.38;11.48;;;;;;;;;;5042418;28;20684;-73
2023/10/31 05:34:29;;;;;;;13.38;10.85;;;;;;;;;;5030890;28;23327;-68
2023/10/31 05:36:54;;;;;;;14.57;11.68;;;;;;;;;;5032749;28;20052;-68
2023/10/31 05:39:20;;;;;;;13.57;10.57;;;;;;;;;;5028671;28;20033;-70
2023/10/31 05:41:45;;;;;;;13.02;9.93;;;;;;;;;;5030377;28;20023;-69
2023/10/31 05:44:10;;;;;;;13.80;9.93;;;;;;;;;;5030180;28;20028;-68
2023/10/31 05:46:39;;;;;;;19.73;15.32;;;;;;;;;;5031976;28;20102;-69
2023/10/31 05:49:06;;;;;;;25.93;14.67;;;;;;;;;;5042045;28;20139;-72
2023/10/31 05:51:31;;;;;;;18.63;13.65;;;;;;;;;;5006426;28;20272;-66
2023/10/31 05:53:56;;;;;;;20.63;14.98;;;;;;;;;;5008274;28;20049;-68
2023/10/31 05:56:22;;;;;;;19.92;14.95;;;;;;;;;;5007730;28;20130;-72
2023/10/31 05:58:47;;;;;;;22.38;16.08;;;;;;;;;;5008809;28;20041;-68
2023/10/31 06:01:13;;;;;;;67.90;52.63;;;;;;;;;;4983024;28;20029;-74
2023/10/31 06:03:42;;;;;;;168.02;113.43;;;;;;;;;;5003025;28;20033;-73
2023/10/31 06:06:08;;;;;;;151.88;117.82;;;;;;;;;;5005455;28;20045;-72
2023/10/31 06:08:33;;;;;;;60.13;47.20;;;;;;;;;;4989470;28;20578;-72
2023/10/31 06:10:58;;;;;;;48.15;35.95;;;;;;;;;;5004867;28;20044;-68
2023/10/31 06:13:26;;;;;;;42.38;31.75;;;;;;;;;;5005917;28;20030;-78
2023/10/31 06:15:51;;;;;;;40.05;27.02;;;;;;;;;;5003490;28;20029;-73
2023/10/31 06:18:16;;;;;;;24.60;19.33;;;;;;;;;;5006471;28;20127;-68
2023/10/31 06:20:42;;;;;;;25.92;18.42;;;;;;;;;;5007864;28;20108;-68
2023/10/31 06:23:07;;;;;;;24.00;18.42;;;;;;;;;;5023593;28;20036;-72
2023/10/31 06:25:32;;;;;;;22.13;19.75;;;;;;;;;;5031293;28;20028;-71
2023/10/31 06:27:58;;;;;;;22.48;16.02;;;;;;;;;;5028117;28;20043;-75
2023/10/31 06:30:24;;;;;;;20.95;16.17;;;;;;;;;;5034346;28;20025;-75
2023/10/31 06:32:50;;;;;;;19.40;14.93;;;;;;;;;;5041103;28;20099;-69
2023/10/31 06:35:16;;;;;;;18.13;14.18;;;;;;;;;;5039163;28;20441;-72
2023/10/31 06:37:41;;;;;;;17.85;14.30;;;;;;;;;;5040602;28;20068;-71
2023/10/31 06:40:07;;;;;;;16.00;14.20;;;;;;;;;;5039445;28;20440;-72
2023/10/31 06:42:32;;;;;;;18.90;15.20;;;;;;;;;;5040957;28;20112;-74
2023/10/31 06:44:57;;;;;;;22.02;16.50;;;;;;;;;;5041635;28;20033;-73
2023/10/31 06:47:23;;;;;;;24.65;20.45;;;;;;;;;;5041440;28;20071;-77
2023/10/31 06:49:48;;;;;;;27.25;20.30;;;;;;;;;;5044974;28;20036;-73
2023/10/31 06:52:13;;;;;;;21.15;17.23;;;;;;;;;;5046772;28;20036;-70
2023/10/31 06:54:39;;;;;;;23.30;17.63;;;;;;;;;;5044352;28;20028;-71
2023/10/31 06:57:04;;;;;;;22.83;16.23;;;;;;;;;;5045822;28;20029;-70
2023/10/31 06:59:29;;;;;;;22.67;16.73;;;;;;;;;;5046020;28;20038;-70
2023/10/31 07:01:55;;;;;;;16.00;11.82;;;;;;;;;;5047349;28;20032;-71
2023/10/31 07:04:20;;;;;;;17.90;11.00;;;;;;;;;;5045330;28;20039;-75
2023/10/31 07:06:46;;;;;;;15.20;9.55;;;;;;;;;;5045153;28;20064;-71
2023/10/31 07:09:11;;;;;;;23.48;12.20;;;;;;;;;;5044863;28;20480;-72
2023/10/31 07:11:36;;;;;;;15.20;13.02;;;;;;;;;;5044516;28;20038;-73
2023/10/31 07:14:02;;;;;;;18.85;14.98;;;;;;;;;;5043113;28;20182;-75
2023/10/31 07:16:28;;;;;;;20.88;16.42;;;;;;;;;;5045103;28;20044;-73
2023/10/31 07:18:53;;;;;;;21.58;16.05;;;;;;;;;;5045762;28;20032;-69
2023/10/31 07:21:18;;;;;;;22.83;18.30;;;;;;;;;;5044750;28;20059;-70
2023/10/31 07:23:44;;;;;;;58.78;41.05;;;;;;;;;;5043502;28;20025;-70
2023/10/31 07:26:10;;;;;;;32.88;24.73;;;;;;;;;;5043658;28;20052;-73
2023/10/31 07:28:35;;;;;;;27.10;20.27;;;;;;;;;;5045585;28;20028;-71
2023/10/31 07:31:01;;;;;;;30.42;21.88;;;;;;;;;;5045334;28;20027;-72
2023/10/31 07:33:26;;;;;;;26.13;19.17;;;;;;;;;;5043396;28;20621;-70
2023/10/31 07:35:51;;;;;;;33.78;19.15;;;;;;;;;;5045208;28;20028;-69
2023/10/31 07:38:17;;;;;;;39.75;28.73;;;;;;;;;;5045617;28;20047;-70
2023/10/31 07:40:43;;;;;;;34.75;25.20;;;;;;;;;;5043575;28;20725;-69
2023/10/31 07:43:08;;;;;;;17.77;11.35;;;;;;;;;;5043855;28;20040;-71
2023/10/31 07:45:34;;;;;;;16.45;11.57;;;;;;;;;;5046341;28;20066;-72
2023/10/31 07:47:59;;;;;;;18.63;12.45;;;;;;;;;;5044598;28;20029;-73
2023/10/31 07:50:24;;;;;;;17.50;11.70;;;;;;;;;;5044606;28;20029;-71
2023/10/31 07:52:50;;;;;;;12.23;9.05;;;;;;;;;;5042861;28;20207;-70
2023/10/31 07:55:15;;;;;;;14.98;7.65;;;;;;;;;;5047009;28;20037;-71
2023/10/31 07:57:40;;;;;;;10.45;6.00;;;;;;;;;;5045052;28;20017;-73
2023/10/31 08:00:10;;;;;;;9.07;3.92;;;;;;;;;;5043543;28;20127;-75
2023/10/31 08:02:36;;;;;;;6.93;2.47;;;;;;;;;;5047650;28;20083;-71
2023/10/31 08:05:01;;;;;;;6.10;2.60;;;;;;;;;;5044976;28;20046;-75
2023/10/31 08:07:29;;;;;;;2.95;1.77;;;;;;;;;;5044124;28;20063;-72
2023/10/31 08:09:55;;;;;;;4.15;1.88;;;;;;;;;;5045295;28;20116;-75
2023/10/31 08:12:20;;;;;;;4.47;2.08;;;;;;;;;;5045188;28;20108;-74
2023/10/31 08:14:46;;;;;;;4.30;2.10;;;;;;;;;;5046771;28;20384;-76
2023/10/31 08:17:11;;;;;;;7.47;2.20;;;;;;;;;;5048548;28;20086;-75
2023/10/31 08:19:36;;;;;;;3.72;2.03;;;;;;;;;;5046569;28;20032;-72
2023/10/31 08:22:02;;;;;;;3.63;1.60;;;;;;;;;;5045162;28;20199;-72
2023/10/31 08:24:27;;;;;;;3.38;1.58;;;;;;;;;;5045102;28;20056;-74
2023/10/31 08:26:53;;;;;;;2.53;1.73;;;;;;;;;;5044975;28;20039;-71
2023/10/31 08:29:18;;;;;;;5.18;2.08;;;;;;;;;;5043925;28;20028;-71
2023/10/31 08:31:43;;;;;;;9.05;2.63;;;;;;;;;;5044562;28;20029;-72
2023/10/31 08:34:10;;;;;;;3.80;2.00;;;;;;;;;;5044535;28;20837;-74
2023/10/31 08:36:35;;;;;;;5.47;2.80;;;;;;;;;;5045462;28;20141;-72
2023/10/31 08:39:00;;;;;;;6.22;2.42;;;;;;;;;;5045846;28;20465;-72
2023/10/31 08:41:26;;;;;;;3.75;2.35;;;;;;;;;;5042173;28;20351;-72
2023/10/31 08:43:51;;;;;;;5.25;2.83;;;;;;;;;;5044290;28;20091;-73
2023/10/31 08:46:17;;;;;;;5.00;2.15;;;;;;;;;;5044604;28;20025;-72
2023/10/31 08:48:42;;;;;;;3.63;1.85;;;;;;;;;;5043212;28;20024;-72
2023/10/31 08:51:08;;;;;;;4.60;2.33;;;;;;;;;;5043127;28;20107;-74
2023/10/31 08:53:33;;;;;;;7.97;2.38;;;;;;;;;;5044993;28;20387;-72
2023/10/31 08:55:59;;;;;;;4.28;2.28;;;;;;;;;;5046367;28;20056;-76
2023/10/31 08:58:24;;;;;;;3.88;2.50;;;;;;;;;;5044067;28;20933;-73
2023/10/31 09:00:49;;;;;;;4.82;1.90;;;;;;;;;;5044480;28;20040;-73
2023/10/31 09:03:15;;;;;;;3.42;1.88;;;;;;;;;;5043730;28;20091;-72
2023/10/31 09:05:40;;;;;;;5.15;3.13;;;;;;;;;;5045327;28;20036;-72
2023/10/31 09:08:06;;;;;;;10.27;8.50;;;;;;;;;;5044977;28;20036;-72
2023/10/31 09:10:32;;;;;;;8.07;5.15;;;;;;;;;;5043323;28;20329;-74
2023/10/31 09:12:57;;;;;;;5.40;2.72;;;;;;;;;;5041956;28;20037;-73
2023/10/31 09:15:23;;;;;;;7.85;6.53;;;;;;;;;;5044080;28;20039;-74
2023/10/31 09:17:48;;;;;;;13.73;8.07;;;;;;;;;;5043051;28;20029;-72
2023/10/31 09:20:13;;;;;;;8.88;6.53;;;;;;;;;;5044444;28;20067;-72
2023/10/31 09:22:39;;;;;;;8.30;2.85;;;;;;;;;;5043752;28;20040;-73
2023/10/31 09:25:04;;;;;;;8.13;2.33;;;;;;;;;;5042890;28;20412;-73
2023/10/31 09:27:30;;;;;;;5.45;2.80;;;;;;;;;;5042717;28;20083;-71
2023/10/31 09:29:55;;;;;;;5.03;2.72;;;;;;;;;;5044369;28;20409;-71
2023/10/31 09:32:20;;;;;;;5.50;2.50;;;;;;;;;;5043575;28;20044;-71
2023/10/31 09:34:46;;;;;;;6.57;2.70;;;;;;;;;;5042620;28;20025;-71
2023/10/31 09:37:11;;;;;;;7.55;2.88;;;;;;;;;;5043447;28;20545;-75
2023/10/31 09:39:36;;;;;;;7.65;5.43;;;;;;;;;;5042887;28;20452;-74
2023/10/31 09:42:02;;;;;;;5.38;2.58;;;;;;;;;;5044092;28;20021;-75
2023/10/31 09:44:27;;;;;;;6.78;3.92;;;;;;;;;;5044609;28;20119;-72
2023/10/31 09:46:53;;;;;;;5.88;3.00;;;;;;;;;;5042894;28;20040;-75
2023/10/31 09:49:18;;;;;;;5.97;2.95;;;;;;;;;;5043862;28;20028;-72
2023/10/31 09:51:43;;;;;;;4.72;2.85;;;;;;;;;;5045446;28;20025;-73
2023/10/31 09:54:09;;;;;;;9.48;6.70;;;;;;;;;;5043681;28;20029;-71
2023/10/31 09:56:35;;;;;;;7.18;4.95;;;;;;;;;;5043225;28;20064;-72
2023/10/31 09:59:01;;;;;;;5.97;4.10;;;;;;;;;;5044355;28;20016;-71
2023/10/31 10:01:26;;;;;;;6.45;4.72;;;;;;;;;;5044101;28;20033;-74
2023/10/31 10:03:52;;;;;;;9.98;4.45;;;;;;;;;;5043029;28;20363;-72
2023/10/31 10:06:21;;;;;;;9.43;4.80;;;;;;;;;;5043178;28;20032;-73
2023/10/31 10:08:46;;;;;;;9.63;5.47;;;;;;;;;;5041508;28;20063;-74
2023/10/31 10:11:11;;;;;;;9.80;3.67;;;;;;;;;;5045446;28;20051;-73
2023/10/31 10:13:37;;;;;;;10.57;4.85;;;;;;;;;;5044087;28;20043;-74
2023/10/31 10:16:02;;;;;;;7.35;4.20;;;;;;;;;;5042617;28;20032;-71
2023/10/31 10:18:28;;;;;;;10.48;3.85;;;;;;;;;;5041338;28;20120;-72
2023/10/31 10:20:55;;;;;;;6.60;3.60;;;;;;;;;;5042641;28;20035;-71
2023/10/31 10:23:20;;;;;;;8.00;6.13;;;;;;;;;;5042083;28;20098;-75
2023/10/31 10:25:48;;;;;;;6.75;3.15;;;;;;;;;;5042926;28;20036;-72
2023/10/31 10:28:14;;;;;;;7.82;3.03;;;;;;;;;;5042266;28;20029;-71
2023/10/31 10:30:39;;;;;;;4.97;2.67;;;;;;;;;;5045062;28;20040;-71
2023/10/31 10:33:05;;;;;;;6.57;4.68;;;;;;;;;;5043666;28;20079;-71
2023/10/31 10:35:30;;;;;;;6.53;4.30;;;;;;;;;;5042981;28;20068;-72
2023/10/31 10:37:56;;;;;;;9.32;5.95;;;;;;;;;;5042834;28;20076;-75
2023/10/31 10:40:21;;;;;;;6.03;3.40;;;;;;;;;;5041509;28;20510;-72
2023/10/31 10:42:47;;;;;;;9.70;4.35;;;;;;;;;;5044513;28;20093;-75
2023/10/31 10:45:15;;;;;;;3.22;2.50;;;;;;;;;;5043327;28;20028;-72
2023/10/31 10:47:43;;;;;;;6.20;2.78;;;;;;;;;;5045192;28;20379;-75
2023/10/31 10:50:11;;;;;;;6.90;3.30;;;;;;;;;;5042329;28;20055;-72
2023/10/31 10:52:40;;;;;;;5.85;2.90;;;;;;;;;;5043529;28;20056;-72
2023/10/31 10:55:07;;;;;;;;;;;;;;;;;;5043603;28;20091;-72
2023/10/31 10:57:33;;;;;;;7.47;3.45;;;;;;;;;;5043042;28;19913;-74
2023/10/31 11:00:01;;;;;;;6.78;3.35;;;;;;;;;;5043582;28;20025;-73
2023/10/31 11:02:27;;;;;;;5.43;3.63;;;;;;;;;;5043827;28;20035;-72
2023/10/31 11:04:53;;;;;;;8.43;5.32;;;;;;;;;;5043528;28;20104;-75
2023/10/31 11:07:20;;;;;;;5.20;3.13;;;;;;;;;;5045650;28;20115;-72
2023/10/31 11:09:46;;;;;;;5.68;2.40;;;;;;;;;;5042597;28;20446;-73
2023/10/31 11:12:12;;;;;;;8.85;3.30;;;;;;;;;;5043023;28;20029;-72
2023/10/31 11:14:39;;;;;;;7.13;2.55;;;;;;;;;;5043178;28;20124;-74
2023/10/31 11:17:14;;;;;;;14.98;9.82;;;;;;;;;;5044128;28;20116;-73
2023/10/31 11:19:40;;;;;;;6.25;2.58;;;;;;;;;;5044111;28;20108;-76
2023/10/31 11:22:06;;;;;;;4.38;2.15;;;;;;;;;;5044850;28;20496;-72
2023/10/31 11:24:32;;;;;;;14.40;8.10;;;;;;;;;;5043950;28;20029;-72
2023/10/31 11:26:58;;;;;;;10.70;4.78;;;;;;;;;;5041940;28;20031;-72
2023/10/31 11:29:24;;;;;;;6.18;2.47;;;;;;;;;;5043506;28;20040;-72
2023/10/31 11:31:49;;;;;;;7.28;2.55;;;;;;;;;;5044698;28;20036;-72
2023/10/31 11:34:19;;;;;;;7.03;3.08;;;;;;;;;;5043583;28;20029;-75
2023/10/31 11:36:46;;;;;;;4.07;1.90;;;;;;;;;;5049107;28;20060;-73
2023/10/31 11:39:16;;;;;;;3.63;2.20;;;;;;;;;;5047562;28;20125;-77
2023/10/31 11:41:55;;;;;;;5.28;2.40;;;;;;;;;;5045584;28;20039;-78
2023/10/31 11:44:25;;;;;;;4.53;1.80;;;;;;;;;;5047393;28;20021;-74
2023/10/31 11:46:52;;;;;;;3.78;2.05;;;;;;;;;;5046543;28;20492;-74
2023/10/31 11:49:17;;;;;;;4.85;2.50;;;;;;;;;;5045725;28;20108;-73
2023/10/31 11:51:46;;;;;;;5.03;3.25;;;;;;;;;;5046982;28;20148;-74
2023/10/31 11:54:12;;;;;;;;;;;;;;;;;;5047083;28;20138;-73
2023/10/31 11:56:37;;;;;;;9.73;3.53;;;;;;;;;;5046493;28;20343;-73
2023/10/31 11:59:03;;;;;;;3.92;2.60;;;;;;;;;;5046139;28;20052;-75
2023/10/31 12:01:29;;;;;;;5.18;2.65;;;;;;;;;;5046798;28;20017;-76
2023/10/31 12:03:54;;;;;;;9.77;4.35;;;;;;;;;;5047122;28;20078;-72
2023/10/31 12:06:21;;;;;;;5.50;2.53;;;;;;;;;;5044961;28;20035;-77
2023/10/31 12:08:48;;;;;;;5.53;3.20;;;;;;;;;;5044654;28;20247;-72
2023/10/31 12:11:17;;;;;;;6.28;4.18;;;;;;;;;;5046134;28;20016;-74
2023/10/31 12:14:05;;;;;;;4.68;3.30;;;;;;;;;;5045620;28;20405;-73
2023/10/31 12:16:32;;;;;;;30.27;26.45;;;;;;;;;;5046477;28;20032;-72
2023/10/31 12:18:59;;;;;;;29.42;23.92;;;;;;;;;;5044872;28;20033;-74
2023/10/31 12:21:38;;;;;;;145.25;129.70;;;;;;;;;;5045068;28;20087;-76
2023/10/31 12:24:04;;;;;;;124.70;111.35;;;;;;;;;;5046173;28;20064;-76
2023/10/31 12:26:31;;;;;;;106.00;95.35;;;;;;;;;;5047231;28;20035;-74
2023/10/31 12:29:10;;;;;;;28.38;25.58;;;;;;;;;;5045261;28;20037;-78
2023/10/31 12:31:38;;;;;;;15.15;13.45;;;;;;;;;;5044826;28;20040;-73
2023/10/31 12:34:05;;;;;;;12.75;10.05;;;;;;;;;;5045402;28;20116;-74
2023/10/31 12:36:30;;;;;;;16.80;10.98;;;;;;;;;;5044732;28;20037;-74
2023/10/31 12:38:56;;;;;;;25.20;22.88;;;;;;;;;;5045677;28;20102;-77
2023/10/31 12:41:21;;;;;;;10.68;9.07;;;;;;;;;;5047460;28;20132;-73
2023/10/31 12:43:47;;;;;;;15.18;13.57;;;;;;;;;;5047649;28;20021;-73
2023/10/31 12:46:29;;;;;;;9.88;5.65;;;;;;;;;;5045893;28;20108;-73
2023/10/31 12:48:54;;;;;;;5.50;3.03;;;;;;;;;;5044845;28;20411;-74
2023/10/31 12:51:19;;;;;;;7.13;3.22;;;;;;;;;;5045052;28;20083;-74
2023/10/31 12:53:54;;;;;;;4.47;2.28;;;;;;;;;;5048250;28;20222;-73
2023/10/31 12:56:55;;;;;;;5.72;3.00;;;;;;;;;;5045524;28;20035;-74
2023/10/31 12:59:20;;;;;;;7.57;4.30;;;;;;;;;;5001384;28;20083;-74
2023/10/31 13:01:45;;;;;;;12.65;8.60;;;;;;;;;;5001213;28;20072;-72
2023/10/31 13:04:11;;;;;;;18.83;11.05;;;;;;;;;;5001069;28;20147;-71
2023/10/31 13:06:38;;;;;;;13.60;8.35;;;;;;;;;;5000185;28;20036;-75
2023/10/31 13:09:05;;;;;;;9.68;7.95;;;;;;;;;;5001420;28;20038;-74
2023/10/31 13:11:31;;;;;;;13.60;9.95;;;;;;;;;;5001585;28;20441;-78
2023/10/31 13:13:56;;;;;;;7.82;5.18;;;;;;;;;;5001343;28;20050;-74
2023/10/31 13:16:22;;;;;;;14.60;11.13;;;;;;;;;;5002544;28;20094;-76
2023/10/31 13:18:47;;;;;;;6.10;2.22;;;;;;;;;;5001921;28;20078;-74
2023/10/31 13:21:14;;;;;;;5.07;3.47;;;;;;;;;;5002135;28;20476;-74
2023/10/31 13:23:45;;;;;;;7.50;4.25;;;;;;;;;;5001195;28;20512;-77
2023/10/31 13:26:11;;;;;;;4.82;2.72;;;;;;;;;;4997933;28;20572;-75
2023/10/31 13:28:38;;;;;;;6.68;2.42;;;;;;;;;;5000488;28;20034;-73
2023/10/31 13:31:04;;;;;;;7.72;2.60;;;;;;;;;;5001380;28;20140;-73
2023/10/31 13:33:29;;;;;;;5.15;2.28;;;;;;;;;;5025871;28;20045;-76
2023/10/31 13:35:55;;;;;;;7.65;2.20;;;;;;;;;;5043292;28;20037;-74
2023/10/31 13:38:20;;;;;;;5.50;2.22;;;;;;;;;;5044686;28;20151;-74
2023/10/31 13:40:45;;;;;;;3.70;2.15;;;;;;;;;;5046357;28;20424;-74
2023/10/31 13:43:11;;;;;;;7.03;2.70;;;;;;;;;;5042966;28;21025;-74
2023/10/31 13:45:36;;;;;;;9.45;3.60;;;;;;;;;;5047583;28;20037;-73
2023/10/31 13:48:02;;;;;;;7.45;3.75;;;;;;;;;;5045068;28;20032;-74
2023/10/31 13:50:27;;;;;;;12.05;3.90;;;;;;;;;;5045443;28;20162;-73
2023/10/31 13:52:52;;;;;;;9.75;3.42;;;;;;;;;;5047590;28;20079;-76
2023/10/31 13:55:18;;;;;;;12.40;3.78;;;;;;;;;;5043319;28;20029;-74
2023/10/31 13:57:44;;;;;;;7.90;3.95;;;;;;;;;;5044906;28;20043;-76
2023/10/31 14:00:10;;;;;;;7.68;3.63;;;;;;;;;;5045279;28;20051;-76
2023/10/31 14:02:35;;;;;;;5.13;3.25;;;;;;;;;;5041281;28;20040;-74
2023/10/31 14:05:01;;;;;;;6.72;3.60;;;;;;;;;;5033619;28;20044;-73
2023/10/31 14:07:26;;;;;;;5.93;3.40;;;;;;;;;;5045632;28;20463;-74
2023/10/31 14:09:52;;;;;;;8.20;4.15;;;;;;;;;;5044558;28;20024;-73
2023/10/31 14:12:18;;;;;;;6.13;3.83;;;;;;;;;;5042623;28;20376;-74
2023/10/31 14:14:43;;;;;;;8.02;4.57;;;;;;;;;;5038761;28;20035;-74
2023/10/31 14:17:08;;;;;;;5.53;3.58;;;;;;;;;;5038147;28;20028;-73
2023/10/31 14:19:35;;;;;;;6.07;3.00;;;;;;;;;;5025885;28;20025;-74
2023/10/31 14:22:00;;;;;;;5.70;3.10;;;;;;;;;;5035056;28;20024;-75
2023/10/31 14:24:26;;;;;;;5.00;2.50;;;;;;;;;;5026610;28;20029;-76